createdAt,value
2018-06-16T00:01:05.385Z,1017
2018-06-16T00:06:04.897Z,1017.1
2018-06-16T00:11:05.393Z,1017.1
2018-06-16T00:16:04.849Z,1017.1
2018-06-16T00:21:05.260Z,1017.1
2018-06-16T00:26:05.072Z,1017.1
2018-06-16T00:31:04.884Z,1017.1
2018-06-16T00:36:05.196Z,1017.1
2018-06-16T00:41:04.916Z,1017.1
2018-06-16T00:46:05.155Z,1017
2018-06-16T00:51:05.489Z,1017
2018-06-16T00:56:04.917Z,1017
2018-06-16T01:01:05.165Z,1017
2018-06-16T01:06:05.457Z,1017
2018-06-16T01:11:05.174Z,1017.1
2018-06-16T01:16:05.490Z,1017.1
2018-06-16T01:21:04.976Z,1017.1
2018-06-16T01:26:05.214Z,1017
2018-06-16T01:31:05.512Z,1017
2018-06-16T01:36:05.004Z,1017
2018-06-16T01:41:04.525Z,1017
2018-06-16T01:46:04.812Z,1017.1
2018-06-16T01:51:05.278Z,1017.1
2018-06-16T01:56:05.536Z,1017.1
2018-06-16T02:01:04.913Z,1017.1
2018-06-16T02:06:05.297Z,1017
2018-06-16T02:11:04.973Z,1017.1
2018-06-16T02:16:05.210Z,1017.1
2018-06-16T02:21:04.716Z,1017.1
2018-06-16T02:26:04.842Z,1017.1
2018-06-16T02:31:05.137Z,1017.1
2018-06-16T02:36:05.568Z,1016.9
2018-06-16T02:41:04.749Z,1017
2018-06-16T02:46:05.414Z,1017.1
2018-06-16T02:51:05.025Z,1017
2018-06-16T02:56:05.313Z,1017
2018-06-16T03:01:05.439Z,1016.9
2018-06-16T03:06:05.034Z,1016.9
2018-06-16T03:11:04.557Z,1016.9
2018-06-16T03:16:04.922Z,1017
2018-06-16T03:21:05.385Z,1017
2018-06-16T03:26:04.573Z,1016.9
2018-06-16T03:31:04.483Z,1017
2018-06-16T03:36:05.395Z,1017
2018-06-16T03:41:04.938Z,1017
2018-06-16T03:46:05.317Z,1017
2018-06-16T03:51:04.768Z,1016.9
2018-06-16T03:56:04.946Z,1017
2018-06-16T04:01:05.217Z,1017
2018-06-16T04:06:04.687Z,1016.9
2018-06-16T04:11:05.379Z,1017
2018-06-16T04:16:04.633Z,1017
2018-06-16T04:21:05.179Z,1017
2018-06-16T04:26:04.978Z,1017
2018-06-16T04:31:05.266Z,1016.9
2018-06-16T04:36:04.652Z,1016.9
2018-06-16T04:41:05.274Z,1017
2018-06-16T04:46:04.571Z,1017
2018-06-16T04:51:05.159Z,1017
2018-06-16T04:56:05.217Z,1017
2018-06-16T05:01:04.585Z,1017
2018-06-16T05:06:05.023Z,1016.9
2018-06-16T05:11:04.597Z,1016.8
2018-06-16T05:16:04.913Z,1016.8
2018-06-16T05:21:05.456Z,1016.8
2018-06-16T05:26:04.618Z,1016.8
2018-06-16T05:31:04.934Z,1016.7
2018-06-16T05:36:05.329Z,1016.8
2018-06-16T05:41:04.996Z,1016.8
2018-06-16T05:46:05.272Z,1016.8
2018-06-16T05:51:04.732Z,1016.8
2018-06-16T05:56:04.953Z,1016.8
2018-06-16T06:01:05.241Z,1016.8
2018-06-16T06:06:04.668Z,1016.8
2018-06-16T06:11:05.245Z,1016.8
2018-06-16T06:16:04.272Z,1016.8
2018-06-16T06:21:05.059Z,1016.8
2018-06-16T06:26:05.271Z,1016.8
2018-06-16T06:31:04.427Z,1016.8
2018-06-16T06:36:05.062Z,1016.8
2018-06-16T06:41:04.565Z,1017
2018-06-16T06:46:04.958Z,1017
2018-06-16T06:51:05.401Z,1017
2018-06-16T06:56:04.437Z,1017
2018-06-16T07:01:05.144Z,1017.1
2018-06-16T07:06:05.364Z,1017
2018-06-16T07:11:05.026Z,1017
2018-06-16T07:16:05.354Z,1017
2018-06-16T07:21:05.515Z,1017
2018-06-16T07:26:05.039Z,1017
2018-06-16T07:31:05.269Z,1017
2018-06-16T07:36:04.876Z,1017
2018-06-16T07:41:05.317Z,1016.9
2018-06-16T07:46:04.472Z,1017
2018-06-16T07:51:05.108Z,1017
2018-06-16T07:56:05.374Z,1017
2018-06-16T08:01:04.366Z,1016.9
2018-06-16T08:06:05.065Z,1016.8
2018-06-16T08:11:04.349Z,1016.9
2018-06-16T08:16:04.919Z,1016.8
2018-06-16T08:21:05.392Z,1016.9
2018-06-16T08:26:04.496Z,1016.9
2018-06-16T08:31:04.932Z,1016.9
2018-06-16T08:36:05.404Z,1016.9
2018-06-16T08:41:04.938Z,1017
2018-06-16T08:46:05.303Z,1017
2018-06-16T08:51:04.783Z,1017
2018-06-16T08:56:04.967Z,1016.9
2018-06-16T09:01:05.225Z,1017
2018-06-16T09:06:04.653Z,1016.9
2018-06-16T09:11:05.371Z,1016.9
2018-06-16T09:16:04.396Z,1016.9
2018-06-16T09:21:05.106Z,1016.9
2018-06-16T09:26:05.335Z,1016.9
2018-06-16T09:31:04.404Z,1016.8
2018-06-16T09:36:05.065Z,1016.9
2018-06-16T09:41:04.409Z,1016.9
2018-06-16T09:46:04.904Z,1016.8
2018-06-16T09:51:05.457Z,1016.9
2018-06-16T09:56:04.423Z,1016.8
2018-06-16T10:01:04.916Z,1016.8
2018-06-16T10:06:05.403Z,1016.8
2018-06-16T10:11:05.000Z,1016.8
2018-06-16T10:16:05.677Z,1016.8
2018-06-16T10:21:04.836Z,1016.8
2018-06-16T10:26:05.008Z,1016.7
2018-06-16T10:31:05.275Z,1016.7
2018-06-16T10:36:04.847Z,1016.5
2018-06-16T10:41:05.440Z,1016.5
2018-06-16T10:46:04.453Z,1016.5
2018-06-16T10:51:05.160Z,1016.5
2018-06-16T10:56:05.388Z,1016.4
2018-06-16T11:01:04.466Z,1016.4
2018-06-16T11:06:05.176Z,1016.5
2018-06-16T11:11:04.610Z,1016.5
2018-06-16T11:16:05.041Z,1016.5
2018-06-16T11:21:05.685Z,1016.4
2018-06-16T11:26:04.611Z,1016.4
2018-06-16T11:31:05.047Z,1016.4
2018-06-16T11:36:05.514Z,1016.3
2018-06-16T11:41:05.047Z,1016.3
2018-06-16T11:46:05.412Z,1016.3
2018-06-16T11:51:04.627Z,1016.3
2018-06-16T11:56:04.985Z,1016.2
2018-06-16T12:01:05.334Z,1016.1
2018-06-16T12:06:04.779Z,1016.1
2018-06-16T12:11:05.495Z,1016
2018-06-16T12:16:04.509Z,1016
2018-06-16T12:21:05.168Z,1016
2018-06-16T12:26:05.502Z,1016
2018-06-16T12:31:04.921Z,1015.8
2018-06-16T12:36:05.239Z,1015.8
2018-06-16T12:41:04.531Z,1015.8
2018-06-16T12:46:05.028Z,1015.5
2018-06-16T12:51:05.518Z,1015.4
2018-06-16T12:56:04.539Z,1015.6
2018-06-16T13:01:05.036Z,1015.5
2018-06-16T13:06:05.534Z,1015.5
2018-06-16T13:11:05.048Z,1015.5
2018-06-16T13:16:05.388Z,1015.5
2018-06-16T13:21:04.962Z,1015.5
2018-06-16T13:26:05.138Z,1015.5
2018-06-16T13:31:05.398Z,1015.5
2018-06-16T13:36:04.750Z,1015.5
2018-06-16T13:41:05.555Z,1015.5
2018-06-16T13:46:04.581Z,1015.5
2018-06-16T13:51:05.287Z,1015.5
2018-06-16T13:56:05.416Z,1015.5
2018-06-16T14:01:04.456Z,1015.4
2018-06-16T14:06:05.166Z,1015.4
2018-06-16T14:11:04.603Z,1015.4
2018-06-16T14:16:05.098Z,1015.4
2018-06-16T14:21:05.602Z,1015.4
2018-06-16T14:26:04.479Z,1015.4
2018-06-16T14:31:05.107Z,1015.4
2018-06-16T14:36:05.603Z,1015.4
2018-06-16T14:41:05.123Z,1015
2018-06-16T14:46:05.391Z,1015
2018-06-16T14:51:04.641Z,1015
2018-06-16T14:56:05.345Z,1015
2018-06-16T15:01:05.419Z,1015
2018-06-16T15:06:04.657Z,1015
2018-06-16T15:11:05.429Z,1015
2018-06-16T15:16:04.704Z,1014.9
2018-06-16T15:21:05.374Z,1014.9
2018-06-16T15:26:05.506Z,1014.9
2018-06-16T15:31:04.541Z,1014.8
2018-06-16T15:36:05.930Z,1014.8
2018-06-16T15:41:05.084Z,1014.8
2018-06-16T15:46:05.183Z,1014.8
2018-06-16T15:51:05.666Z,1014.7
2018-06-16T15:56:04.560Z,1014.5
2018-06-16T16:01:05.103Z,1014.6
2018-06-16T16:06:05.690Z,1014.5
2018-06-16T16:11:05.214Z,1014.5
2018-06-16T16:16:05.557Z,1014.5
2018-06-16T16:21:04.868Z,1014.4
2018-06-16T16:26:05.225Z,1014.4
2018-06-16T16:31:05.502Z,1014.4
2018-06-16T16:36:04.743Z,1014.4
2018-06-16T16:41:05.507Z,1014.3
2018-06-16T16:46:04.604Z,1014.3
2018-06-16T16:51:05.742Z,1014.3
2018-06-16T16:56:05.524Z,1014.4
2018-06-16T17:01:04.477Z,1014.6
2018-06-16T17:06:05.262Z,1014.8
2018-06-16T17:11:04.635Z,1014.9
2018-06-16T17:16:04.915Z,1014.9
2018-06-16T17:21:05.546Z,1015.4
2018-06-16T17:26:04.500Z,1015.6
2018-06-16T17:31:05.187Z,1015.6
2018-06-16T17:36:05.559Z,1015.6
2018-06-16T17:41:05.067Z,1015.6
2018-06-16T17:46:05.465Z,1015.5
2018-06-16T17:51:04.813Z,1015.5
2018-06-16T17:56:05.085Z,1015.4
2018-06-16T18:01:05.393Z,1015.4
2018-06-16T18:06:04.696Z,1015.4
2018-06-16T18:11:05.540Z,1015.4
2018-06-16T18:16:04.842Z,1015.4
2018-06-16T18:21:05.350Z,1015.4
2018-06-16T18:26:05.561Z,1015.3
2018-06-16T18:31:04.393Z,1015.4
2018-06-16T18:36:05.259Z,1015.4
2018-06-16T18:41:04.577Z,1015.4
2018-06-16T18:46:05.007Z,1015.5
2018-06-16T18:51:04.005Z,1015.5
2018-06-16T18:56:04.800Z,1015.5
2018-06-16T19:01:05.017Z,1015.5
2018-06-16T19:06:04.026Z,1015.6
2018-06-16T19:11:05.394Z,1015.6
2018-06-16T19:16:05.653Z,1016
2018-06-16T19:21:04.775Z,1016.2
2018-06-16T19:26:05.327Z,1016.2
2018-06-16T19:31:04.190Z,1016.3
2018-06-16T19:36:04.957Z,1016.3
2018-06-16T19:41:03.939Z,1016.3
2018-06-16T19:46:04.786Z,1016.2
2018-06-16T19:51:05.514Z,1016.2
2018-06-16T19:56:03.955Z,1016.1
2018-06-16T20:01:04.500Z,1016.3
2018-06-16T20:06:05.421Z,1016.3
2018-06-16T20:11:04.511Z,1016.4
2018-06-16T20:16:05.107Z,1016.5
2018-06-16T20:21:04.249Z,1016.5
2018-06-16T20:26:04.697Z,1016.5
2018-06-16T20:31:04.992Z,1016.6
2018-06-16T20:36:03.996Z,1016.7
2018-06-16T20:41:05.129Z,1016.7
2018-06-16T20:46:04.009Z,1016.7
2018-06-16T20:51:04.724Z,1016.7
2018-06-16T20:56:05.010Z,1016.7
2018-06-16T21:01:03.867Z,1016.7
2018-06-16T21:06:04.646Z,1016.7
2018-06-16T21:11:04.783Z,1016.7
2018-06-16T21:16:04.751Z,1016.7
2018-06-16T21:21:05.443Z,1016.7
2018-06-16T21:26:03.911Z,1016.7
2018-06-16T21:31:05.851Z,1016.7
2018-06-16T21:36:05.771Z,1016.7
2018-06-16T21:41:04.737Z,1016.7
2018-06-16T21:46:05.068Z,1016.7
2018-06-16T21:51:04.079Z,1016.7
2018-06-16T21:56:05.082Z,1016.7
2018-06-16T22:01:05.140Z,1016.7
2018-06-16T22:06:04.100Z,1016.7
2018-06-16T22:11:05.230Z,1016.7
2018-06-16T22:16:05.828Z,1016.7
2018-06-16T22:21:04.976Z,1016.7
2018-06-16T22:26:05.251Z,1016.7
2018-06-16T22:31:04.106Z,1016.7
2018-06-16T22:36:04.846Z,1016.7
2018-06-16T22:41:04.138Z,1016.7
2018-06-16T22:46:04.673Z,1016.7
2018-06-16T22:51:05.556Z,1016.7
2018-06-16T22:56:04.159Z,1016.7
2018-06-16T23:01:04.699Z,1016.7
2018-06-16T23:06:05.300Z,1016.7
2018-06-16T23:11:05.169Z,1016.7
2018-06-16T23:16:05.183Z,1016.7
2018-06-16T23:21:04.184Z,1016.7
2018-06-16T23:26:04.725Z,1016.7
2018-06-16T23:31:05.190Z,1016.7
2018-06-16T23:36:04.201Z,1016.7
2018-06-16T23:41:05.201Z,1017.2
2018-06-16T23:46:03.901Z,1017.2
2018-06-16T23:51:04.758Z,1017.2
2018-06-16T23:56:05.225Z,1017.2
